sensor_id;sensor_type;location;lat;lon;timestamp;P1;durP1;ratioP1;P2;durP2;ratioP2
50012;SDS011;35901;48.694;9.476;2023-02-23T00:01:48;21.20;;;18.87;;
50012;SDS011;35901;48.694;9.476;2023-02-23T00:04:14;23.17;;;18.83;;
50012;SDS011;35901;48.694;9.476;2023-02-23T00:06:42;21.43;;;18.53;;
50012;SDS011;35901;48.694;9.476;2023-02-23T00:09:08;26.47;;;19.13;;
50012;SDS011;35901;48.694;9.476;2023-02-23T00:11:36;22.40;;;18.93;;
50012;SDS011;35901;48.694;9.476;2023-02-23T00:14:02;23.10;;;18.13;;
50012;SDS011;35901;48.694;9.476;2023-02-23T00:16:27;21.87;;;18.20;;
50012;SDS011;35901;48.694;9.476;2023-02-23T00:18:54;23.73;;;17.93;;
50012;SDS011;35901;48.694;9.476;2023-02-23T00:21:30;21.80;;;17.63;;
50012;SDS011;35901;48.694;9.476;2023-02-23T00:24:03;19.57;;;17.13;;
50012;SDS011;35901;48.694;9.476;2023-02-23T00:26:31;22.20;;;18.07;;
50012;SDS011;35901;48.694;9.476;2023-02-23T00:29:02;21.03;;;17.07;;
50012;SDS011;35901;48.694;9.476;2023-02-23T00:31:30;21.30;;;16.53;;
50012;SDS011;35901;48.694;9.476;2023-02-23T00:33:58;22.60;;;17.80;;
50012;SDS011;35901;48.694;9.476;2023-02-23T00:36:27;22.77;;;17.70;;
50012;SDS011;35901;48.694;9.476;2023-02-23T00:38:55;24.17;;;19.33;;
50012;SDS011;35901;48.694;9.476;2023-02-23T00:41:25;25.27;;;20.03;;
50012;SDS011;35901;48.694;9.476;2023-02-23T00:43:56;22.40;;;18.47;;
50012;SDS011;35901;48.694;9.476;2023-02-23T00:46:23;24.53;;;20.07;;
50012;SDS011;35901;48.694;9.476;2023-02-23T00:48:53;25.50;;;19.57;;
50012;SDS011;35901;48.694;9.476;2023-02-23T00:51:21;21.53;;;17.70;;
50012;SDS011;35901;48.694;9.476;2023-02-23T00:53:47;21.37;;;18.00;;
50012;SDS011;35901;48.694;9.476;2023-02-23T00:56:14;19.83;;;17.37;;
50012;SDS011;35901;48.694;9.476;2023-02-23T00:58:40;19.93;;;16.43;;
50012;SDS011;35901;48.694;9.476;2023-02-23T01:01:10;21.83;;;17.90;;
50012;SDS011;35901;48.694;9.476;2023-02-23T01:03:37;20.63;;;16.77;;
50012;SDS011;35901;48.694;9.476;2023-02-23T01:06:07;21.23;;;16.67;;
50012;SDS011;35901;48.694;9.476;2023-02-23T01:08:35;21.80;;;16.87;;
50012;SDS011;35901;48.694;9.476;2023-02-23T01:11:07;21.00;;;16.97;;
50012;SDS011;35901;48.694;9.476;2023-02-23T01:13:34;24.70;;;16.30;;
50012;SDS011;35901;48.694;9.476;2023-02-23T01:16:07;25.10;;;19.37;;
50012;SDS011;35901;48.694;9.476;2023-02-23T01:18:35;24.27;;;18.90;;
50012;SDS011;35901;48.694;9.476;2023-02-23T01:21:02;22.90;;;18.07;;
50012;SDS011;35901;48.694;9.476;2023-02-23T01:23:32;21.00;;;16.73;;
50012;SDS011;35901;48.694;9.476;2023-02-23T01:25:58;21.90;;;17.23;;
50012;SDS011;35901;48.694;9.476;2023-02-23T01:28:24;21.83;;;16.60;;
50012;SDS011;35901;48.694;9.476;2023-02-23T01:30:49;19.90;;;15.73;;
50012;SDS011;35901;48.694;9.476;2023-02-23T01:33:15;21.17;;;16.13;;
50012;SDS011;35901;48.694;9.476;2023-02-23T01:35:41;18.77;;;16.17;;
50012;SDS011;35901;48.694;9.476;2023-02-23T01:38:08;19.97;;;16.87;;
50012;SDS011;35901;48.694;9.476;2023-02-23T01:40:35;20.73;;;16.43;;
50012;SDS011;35901;48.694;9.476;2023-02-23T01:43:14;20.47;;;15.60;;
50012;SDS011;35901;48.694;9.476;2023-02-23T01:45:41;19.13;;;15.53;;
50012;SDS011;35901;48.694;9.476;2023-02-23T01:48:11;18.47;;;14.83;;
50012;SDS011;35901;48.694;9.476;2023-02-23T01:50:42;18.07;;;14.60;;
50012;SDS011;35901;48.694;9.476;2023-02-23T01:53:13;17.93;;;14.93;;
50012;SDS011;35901;48.694;9.476;2023-02-23T01:55:40;20.07;;;16.50;;
50012;SDS011;35901;48.694;9.476;2023-02-23T01:58:10;20.13;;;16.80;;
50012;SDS011;35901;48.694;9.476;2023-02-23T02:00:41;25.83;;;18.33;;
50012;SDS011;35901;48.694;9.476;2023-02-23T02:03:11;26.10;;;18.73;;
50012;SDS011;35901;48.694;9.476;2023-02-23T02:05:41;21.87;;;17.93;;
50012;SDS011;35901;48.694;9.476;2023-02-23T02:08:10;19.53;;;15.53;;
50012;SDS011;35901;48.694;9.476;2023-02-23T02:10:36;18.73;;;15.53;;
50012;SDS011;35901;48.694;9.476;2023-02-23T02:13:12;21.43;;;17.33;;
50012;SDS011;35901;48.694;9.476;2023-02-23T02:15:47;22.37;;;16.30;;
50012;SDS011;35901;48.694;9.476;2023-02-23T02:18:45;26.40;;;18.67;;
50012;SDS011;35901;48.694;9.476;2023-02-23T02:29:45;23.97;;;17.57;;
50012;SDS011;35901;48.694;9.476;2023-02-23T02:38:33;23.90;;;18.70;;
50012;SDS011;35901;48.694;9.476;2023-02-23T02:43:47;28.53;;;20.33;;
50012;SDS011;35901;48.694;9.476;2023-02-23T02:46:29;25.53;;;20.33;;
50012;SDS011;35901;48.694;9.476;2023-02-23T02:54:24;25.87;;;21.47;;
50012;SDS011;35901;48.694;9.476;2023-02-23T02:56:54;23.50;;;19.77;;
50012;SDS011;35901;48.694;9.476;2023-02-23T02:59:22;25.00;;;20.40;;
50012;SDS011;35901;48.694;9.476;2023-02-23T03:02:21;25.60;;;18.90;;
50012;SDS011;35901;48.694;9.476;2023-02-23T03:05:48;21.70;;;17.73;;
50012;SDS011;35901;48.694;9.476;2023-02-23T03:11:13;25.83;;;17.30;;
50012;SDS011;35901;48.694;9.476;2023-02-23T03:23:08;25.60;;;20.17;;
50012;SDS011;35901;48.694;9.476;2023-02-23T03:26:07;27.87;;;22.30;;
50012;SDS011;35901;48.694;9.476;2023-02-23T03:29:04;29.20;;;22.83;;
50012;SDS011;35901;48.694;9.476;2023-02-23T03:32:13;26.33;;;20.40;;
50012;SDS011;35901;48.694;9.476;2023-02-23T03:35:08;26.80;;;19.97;;
50012;SDS011;35901;48.694;9.476;2023-02-23T03:38:05;28.53;;;20.80;;
50012;SDS011;35901;48.694;9.476;2023-02-23T03:40:58;28.47;;;22.30;;
50012;SDS011;35901;48.694;9.476;2023-02-23T03:43:46;26.53;;;21.70;;
50012;SDS011;35901;48.694;9.476;2023-02-23T03:46:37;26.83;;;21.50;;
50012;SDS011;35901;48.694;9.476;2023-02-23T03:49:22;32.13;;;24.70;;
50012;SDS011;35901;48.694;9.476;2023-02-23T03:52:15;31.20;;;24.20;;
50012;SDS011;35901;48.694;9.476;2023-02-23T03:55:13;29.07;;;22.30;;
50012;SDS011;35901;48.694;9.476;2023-02-23T03:58:05;30.23;;;22.60;;
50012;SDS011;35901;48.694;9.476;2023-02-23T04:00:55;31.10;;;23.83;;
50012;SDS011;35901;48.694;9.476;2023-02-23T04:03:44;30.63;;;23.07;;
50012;SDS011;35901;48.694;9.476;2023-02-23T04:06:33;29.23;;;22.93;;
50012;SDS011;35901;48.694;9.476;2023-02-23T04:09:20;25.13;;;20.50;;
50012;SDS011;35901;48.694;9.476;2023-02-23T04:12:10;29.13;;;21.43;;
50012;SDS011;35901;48.694;9.476;2023-02-23T04:15:00;24.73;;;20.30;;
50012;SDS011;35901;48.694;9.476;2023-02-23T04:17:32;27.33;;;21.20;;
50012;SDS011;35901;48.694;9.476;2023-02-23T04:19:58;26.27;;;21.00;;
50012;SDS011;35901;48.694;9.476;2023-02-23T04:22:24;26.87;;;21.07;;
50012;SDS011;35901;48.694;9.476;2023-02-23T04:24:50;28.13;;;21.93;;
50012;SDS011;35901;48.694;9.476;2023-02-23T04:27:16;30.23;;;22.83;;
50012;SDS011;35901;48.694;9.476;2023-02-23T04:29:42;32.17;;;24.90;;
50012;SDS011;35901;48.694;9.476;2023-02-23T04:32:11;31.97;;;25.00;;
50012;SDS011;35901;48.694;9.476;2023-02-23T04:34:39;28.53;;;23.07;;
50012;SDS011;35901;48.694;9.476;2023-02-23T04:37:05;29.97;;;22.70;;
50012;SDS011;35901;48.694;9.476;2023-02-23T04:39:31;25.87;;;22.13;;
50012;SDS011;35901;48.694;9.476;2023-02-23T04:41:57;27.00;;;22.93;;
50012;SDS011;35901;48.694;9.476;2023-02-23T04:44:22;32.77;;;24.30;;
50012;SDS011;35901;48.694;9.476;2023-02-23T04:46:48;27.23;;;21.70;;
50012;SDS011;35901;48.694;9.476;2023-02-23T04:49:13;30.73;;;23.33;;
50012;SDS011;35901;48.694;9.476;2023-02-23T04:51:39;26.07;;;22.00;;
50012;SDS011;35901;48.694;9.476;2023-02-23T04:54:05;27.10;;;21.90;;
50012;SDS011;35901;48.694;9.476;2023-02-23T04:56:30;27.53;;;21.63;;
50012;SDS011;35901;48.694;9.476;2023-02-23T04:58:56;26.33;;;22.00;;
50012;SDS011;35901;48.694;9.476;2023-02-23T05:01:22;26.37;;;21.67;;
50012;SDS011;35901;48.694;9.476;2023-02-23T05:03:48;37.83;;;26.90;;
50012;SDS011;35901;48.694;9.476;2023-02-23T05:06:14;29.50;;;23.33;;
50012;SDS011;35901;48.694;9.476;2023-02-23T05:08:41;29.50;;;22.80;;
50012;SDS011;35901;48.694;9.476;2023-02-23T05:11:06;27.47;;;21.07;;
50012;SDS011;35901;48.694;9.476;2023-02-23T05:13:33;28.33;;;22.63;;
50012;SDS011;35901;48.694;9.476;2023-02-23T05:15:59;26.13;;;21.10;;
50012;SDS011;35901;48.694;9.476;2023-02-23T05:18:25;26.60;;;22.17;;
50012;SDS011;35901;48.694;9.476;2023-02-23T05:20:51;28.70;;;22.67;;
50012;SDS011;35901;48.694;9.476;2023-02-23T05:23:18;30.40;;;23.67;;
50012;SDS011;35901;48.694;9.476;2023-02-23T05:25:45;26.00;;;20.80;;
50012;SDS011;35901;48.694;9.476;2023-02-23T05:28:10;28.07;;;23.73;;
50012;SDS011;35901;48.694;9.476;2023-02-23T05:30:36;31.17;;;24.67;;
50012;SDS011;35901;48.694;9.476;2023-02-23T05:33:02;32.27;;;23.60;;
50012;SDS011;35901;48.694;9.476;2023-02-23T05:35:28;31.00;;;24.27;;
50012;SDS011;35901;48.694;9.476;2023-02-23T05:37:53;27.47;;;21.57;;
50012;SDS011;35901;48.694;9.476;2023-02-23T05:40:19;28.53;;;23.17;;
50012;SDS011;35901;48.694;9.476;2023-02-23T05:42:45;29.73;;;23.80;;
50012;SDS011;35901;48.694;9.476;2023-02-23T05:45:10;30.77;;;23.90;;
50012;SDS011;35901;48.694;9.476;2023-02-23T05:47:36;32.43;;;23.53;;
50012;SDS011;35901;48.694;9.476;2023-02-23T05:50:03;31.63;;;25.43;;
50012;SDS011;35901;48.694;9.476;2023-02-23T05:52:30;33.20;;;25.60;;
50012;SDS011;35901;48.694;9.476;2023-02-23T05:54:56;34.57;;;27.47;;
50012;SDS011;35901;48.694;9.476;2023-02-23T05:57:22;34.67;;;27.27;;
50012;SDS011;35901;48.694;9.476;2023-02-23T05:59:48;35.93;;;26.93;;
50012;SDS011;35901;48.694;9.476;2023-02-23T06:02:14;33.23;;;27.20;;
50012;SDS011;35901;48.694;9.476;2023-02-23T06:04:39;35.30;;;27.57;;
50012;SDS011;35901;48.694;9.476;2023-02-23T06:07:06;35.60;;;28.00;;
50012;SDS011;35901;48.694;9.476;2023-02-23T06:09:32;39.23;;;27.97;;
50012;SDS011;35901;48.694;9.476;2023-02-23T06:11:57;34.07;;;26.47;;
50012;SDS011;35901;48.694;9.476;2023-02-23T06:14:25;35.83;;;26.70;;
50012;SDS011;35901;48.694;9.476;2023-02-23T06:16:51;33.17;;;26.67;;
50012;SDS011;35901;48.694;9.476;2023-02-23T06:19:17;35.93;;;27.00;;
50012;SDS011;35901;48.694;9.476;2023-02-23T06:21:43;32.47;;;27.00;;
50012;SDS011;35901;48.694;9.476;2023-02-23T06:24:09;34.97;;;26.50;;
50012;SDS011;35901;48.694;9.476;2023-02-23T06:26:36;35.07;;;27.60;;
50012;SDS011;35901;48.694;9.476;2023-02-23T06:29:02;38.17;;;28.53;;
50012;SDS011;35901;48.694;9.476;2023-02-23T06:31:27;38.27;;;29.13;;
50012;SDS011;35901;48.694;9.476;2023-02-23T06:33:53;38.57;;;29.27;;
50012;SDS011;35901;48.694;9.476;2023-02-23T06:36:21;36.83;;;27.37;;
50012;SDS011;35901;48.694;9.476;2023-02-23T06:38:46;42.90;;;30.80;;
50012;SDS011;35901;48.694;9.476;2023-02-23T06:41:12;39.90;;;30.07;;
50012;SDS011;35901;48.694;9.476;2023-02-23T06:43:38;41.57;;;30.70;;
50012;SDS011;35901;48.694;9.476;2023-02-23T06:46:03;39.93;;;29.43;;
50012;SDS011;35901;48.694;9.476;2023-02-23T06:48:30;40.17;;;30.63;;
50012;SDS011;35901;48.694;9.476;2023-02-23T06:50:57;40.97;;;30.30;;
50012;SDS011;35901;48.694;9.476;2023-02-23T06:53:23;35.77;;;27.63;;
50012;SDS011;35901;48.694;9.476;2023-02-23T06:55:49;34.87;;;26.90;;
50012;SDS011;35901;48.694;9.476;2023-02-23T06:58:14;36.60;;;28.17;;
50012;SDS011;35901;48.694;9.476;2023-02-23T07:00:41;37.20;;;27.73;;
50012;SDS011;35901;48.694;9.476;2023-02-23T07:03:07;36.37;;;28.57;;
50012;SDS011;35901;48.694;9.476;2023-02-23T07:05:33;39.87;;;28.17;;
50012;SDS011;35901;48.694;9.476;2023-02-23T07:07:59;38.30;;;28.93;;
50012;SDS011;35901;48.694;9.476;2023-02-23T07:10:25;32.57;;;25.83;;
50012;SDS011;35901;48.694;9.476;2023-02-23T07:12:52;36.43;;;26.73;;
50012;SDS011;35901;48.694;9.476;2023-02-23T07:15:18;35.37;;;26.93;;
50012;SDS011;35901;48.694;9.476;2023-02-23T07:17:44;34.87;;;26.90;;
50012;SDS011;35901;48.694;9.476;2023-02-23T07:20:13;31.27;;;25.93;;
50012;SDS011;35901;48.694;9.476;2023-02-23T07:22:40;33.73;;;26.30;;
50012;SDS011;35901;48.694;9.476;2023-02-23T07:25:06;31.37;;;25.60;;
50012;SDS011;35901;48.694;9.476;2023-02-23T07:27:33;35.50;;;26.43;;
50012;SDS011;35901;48.694;9.476;2023-02-23T07:29:59;31.27;;;25.00;;
50012;SDS011;35901;48.694;9.476;2023-02-23T07:32:27;34.83;;;26.47;;
50012;SDS011;35901;48.694;9.476;2023-02-23T07:34:52;31.00;;;25.60;;
50012;SDS011;35901;48.694;9.476;2023-02-23T07:37:18;30.53;;;24.83;;
50012;SDS011;35901;48.694;9.476;2023-02-23T07:39:44;30.07;;;25.40;;
50012;SDS011;35901;48.694;9.476;2023-02-23T07:42:10;31.97;;;24.67;;
50012;SDS011;35901;48.694;9.476;2023-02-23T07:44:35;32.43;;;25.73;;
50012;SDS011;35901;48.694;9.476;2023-02-23T07:47:02;33.13;;;26.07;;
50012;SDS011;35901;48.694;9.476;2023-02-23T07:49:28;30.97;;;25.67;;
50012;SDS011;35901;48.694;9.476;2023-02-23T07:51:54;30.00;;;24.20;;
50012;SDS011;35901;48.694;9.476;2023-02-23T07:54:20;32.87;;;26.77;;
50012;SDS011;35901;48.694;9.476;2023-02-23T07:56:46;30.60;;;25.93;;
50012;SDS011;35901;48.694;9.476;2023-02-23T07:59:12;33.20;;;26.50;;
50012;SDS011;35901;48.694;9.476;2023-02-23T08:01:38;32.00;;;25.60;;
50012;SDS011;35901;48.694;9.476;2023-02-23T08:04:04;31.17;;;26.57;;
50012;SDS011;35901;48.694;9.476;2023-02-23T08:06:30;31.83;;;26.07;;
50012;SDS011;35901;48.694;9.476;2023-02-23T08:08:59;36.70;;;27.83;;
50012;SDS011;35901;48.694;9.476;2023-02-23T08:11:25;31.73;;;26.40;;
50012;SDS011;35901;48.694;9.476;2023-02-23T08:13:54;32.00;;;25.33;;
50012;SDS011;35901;48.694;9.476;2023-02-23T08:16:25;35.73;;;27.17;;
50012;SDS011;35901;48.694;9.476;2023-02-23T08:18:55;30.73;;;25.40;;
50012;SDS011;35901;48.694;9.476;2023-02-23T08:21:25;30.07;;;25.97;;
50012;SDS011;35901;48.694;9.476;2023-02-23T08:23:53;32.03;;;25.70;;
50012;SDS011;35901;48.694;9.476;2023-02-23T08:26:21;30.77;;;25.10;;
50012;SDS011;35901;48.694;9.476;2023-02-23T08:28:49;32.33;;;25.73;;
50012;SDS011;35901;48.694;9.476;2023-02-23T08:31:14;30.77;;;26.23;;
50012;SDS011;35901;48.694;9.476;2023-02-23T08:33:42;28.87;;;23.10;;
50012;SDS011;35901;48.694;9.476;2023-02-23T08:36:08;28.13;;;24.00;;
50012;SDS011;35901;48.694;9.476;2023-02-23T08:38:34;30.80;;;24.57;;
50012;SDS011;35901;48.694;9.476;2023-02-23T08:41:03;33.80;;;26.07;;
50012;SDS011;35901;48.694;9.476;2023-02-23T08:43:29;32.73;;;27.07;;
50012;SDS011;35901;48.694;9.476;2023-02-23T08:45:55;36.00;;;27.03;;
50012;SDS011;35901;48.694;9.476;2023-02-23T08:48:20;35.20;;;26.80;;
50012;SDS011;35901;48.694;9.476;2023-02-23T08:50:47;31.27;;;25.07;;
50012;SDS011;35901;48.694;9.476;2023-02-23T08:53:16;27.67;;;23.83;;
50012;SDS011;35901;48.694;9.476;2023-02-23T08:55:43;33.50;;;26.50;;
50012;SDS011;35901;48.694;9.476;2023-02-23T08:58:09;29.87;;;24.20;;
50012;SDS011;35901;48.694;9.476;2023-02-23T09:00:36;31.03;;;23.97;;
50012;SDS011;35901;48.694;9.476;2023-02-23T09:03:03;29.33;;;24.30;;
50012;SDS011;35901;48.694;9.476;2023-02-23T09:05:31;27.57;;;23.37;;
50012;SDS011;35901;48.694;9.476;2023-02-23T09:07:57;25.07;;;22.23;;
50012;SDS011;35901;48.694;9.476;2023-02-23T09:10:23;25.90;;;22.63;;
50012;SDS011;35901;48.694;9.476;2023-02-23T09:12:51;27.93;;;23.57;;
50012;SDS011;35901;48.694;9.476;2023-02-23T09:15:18;25.63;;;22.77;;
50012;SDS011;35901;48.694;9.476;2023-02-23T09:17:44;26.57;;;22.60;;
50012;SDS011;35901;48.694;9.476;2023-02-23T09:20:11;25.23;;;22.07;;
50012;SDS011;35901;48.694;9.476;2023-02-23T09:22:43;30.43;;;24.77;;
50012;SDS011;35901;48.694;9.476;2023-02-23T09:25:13;28.87;;;23.20;;
50012;SDS011;35901;48.694;9.476;2023-02-23T09:27:53;26.03;;;22.40;;
50012;SDS011;35901;48.694;9.476;2023-02-23T09:30:23;26.07;;;23.27;;
50012;SDS011;35901;48.694;9.476;2023-02-23T09:32:50;26.10;;;22.50;;
50012;SDS011;35901;48.694;9.476;2023-02-23T09:35:16;24.83;;;22.23;;
50012;SDS011;35901;48.694;9.476;2023-02-23T09:37:50;25.77;;;23.03;;
50012;SDS011;35901;48.694;9.476;2023-02-23T09:40:19;25.23;;;22.53;;
50012;SDS011;35901;48.694;9.476;2023-02-23T09:45:38;28.13;;;23.40;;
50012;SDS011;35901;48.694;9.476;2023-02-23T09:48:20;23.83;;;20.57;;
50012;SDS011;35901;48.694;9.476;2023-02-23T09:50:49;24.87;;;21.50;;
50012;SDS011;35901;48.694;9.476;2023-02-23T09:53:23;22.53;;;20.07;;
50012;SDS011;35901;48.694;9.476;2023-02-23T09:55:59;21.10;;;18.50;;
50012;SDS011;35901;48.694;9.476;2023-02-23T09:58:32;24.33;;;20.13;;
50012;SDS011;35901;48.694;9.476;2023-02-23T10:01:16;19.57;;;17.47;;
50012;SDS011;35901;48.694;9.476;2023-02-23T10:06:26;20.27;;;17.80;;
50012;SDS011;35901;48.694;9.476;2023-02-23T10:09:04;20.10;;;16.57;;
50012;SDS011;35901;48.694;9.476;2023-02-23T10:11:44;19.00;;;16.97;;
50012;SDS011;35901;48.694;9.476;2023-02-23T10:23:16;15.87;;;13.80;;
50012;SDS011;35901;48.694;9.476;2023-02-23T10:25:48;15.53;;;13.70;;
50012;SDS011;35901;48.694;9.476;2023-02-23T10:28:16;14.03;;;12.63;;
50012;SDS011;35901;48.694;9.476;2023-02-23T10:30:45;13.00;;;11.67;;
50012;SDS011;35901;48.694;9.476;2023-02-23T10:35:47;13.67;;;12.00;;
50012;SDS011;35901;48.694;9.476;2023-02-23T10:38:17;12.80;;;11.60;;
50012;SDS011;35901;48.694;9.476;2023-02-23T10:40:50;12.93;;;11.63;;
50012;SDS011;35901;48.694;9.476;2023-02-23T10:43:19;13.23;;;11.63;;
50012;SDS011;35901;48.694;9.476;2023-02-23T10:45:49;12.83;;;10.97;;
50012;SDS011;35901;48.694;9.476;2023-02-23T10:48:18;11.73;;;10.53;;
50012;SDS011;35901;48.694;9.476;2023-02-23T10:50:47;12.10;;;10.90;;
50012;SDS011;35901;48.694;9.476;2023-02-23T10:53:29;11.57;;;10.23;;
50012;SDS011;35901;48.694;9.476;2023-02-23T10:56:07;11.67;;;10.53;;
50012;SDS011;35901;48.694;9.476;2023-02-23T11:01:11;12.23;;;10.27;;
50012;SDS011;35901;48.694;9.476;2023-02-23T11:04:11;10.03;;;9.00;;
50012;SDS011;35901;48.694;9.476;2023-02-23T11:06:43;18.90;;;15.90;;
50012;SDS011;35901;48.694;9.476;2023-02-23T11:09:26;13.67;;;12.27;;
50012;SDS011;35901;48.694;9.476;2023-02-23T11:11:58;11.17;;;9.97;;
50012;SDS011;35901;48.694;9.476;2023-02-23T11:14:28;26.03;;;23.00;;
50012;SDS011;35901;48.694;9.476;2023-02-23T11:16:55;10.50;;;9.40;;
50012;SDS011;35901;48.694;9.476;2023-02-23T11:19:32;21.80;;;18.10;;
50012;SDS011;35901;48.694;9.476;2023-02-23T11:22:01;10.77;;;9.03;;
50012;SDS011;35901;48.694;9.476;2023-02-23T11:24:32;8.93;;;7.70;;
50012;SDS011;35901;48.694;9.476;2023-02-23T11:27:01;20.10;;;17.43;;
50012;SDS011;35901;48.694;9.476;2023-02-23T11:34:44;9.40;;;8.07;;
50012;SDS011;35901;48.694;9.476;2023-02-23T11:39:54;9.17;;;8.10;;
50012;SDS011;35901;48.694;9.476;2023-02-23T11:42:23;7.70;;;6.90;;
50012;SDS011;35901;48.694;9.476;2023-02-23T11:44:51;7.40;;;6.70;;
50012;SDS011;35901;48.694;9.476;2023-02-23T11:47:48;7.37;;;6.37;;
50012;SDS011;35901;48.694;9.476;2023-02-23T11:50:21;8.47;;;6.00;;
50012;SDS011;35901;48.694;9.476;2023-02-23T11:52:56;7.57;;;6.70;;
50012;SDS011;35901;48.694;9.476;2023-02-23T11:55:29;8.50;;;6.00;;
50012;SDS011;35901;48.694;9.476;2023-02-23T11:58:07;7.70;;;5.20;;
50012;SDS011;35901;48.694;9.476;2023-02-23T12:00:34;7.70;;;6.43;;
50012;SDS011;35901;48.694;9.476;2023-02-23T12:03:00;8.17;;;5.07;;
50012;SDS011;35901;48.694;9.476;2023-02-23T12:05:28;6.70;;;5.30;;
50012;SDS011;35901;48.694;9.476;2023-02-23T12:10:43;5.27;;;3.67;;
50012;SDS011;35901;48.694;9.476;2023-02-23T12:14:01;3.73;;;3.13;;
50012;SDS011;35901;48.694;9.476;2023-02-23T12:16:17;5.13;;;3.47;;
50012;SDS011;35901;48.694;9.476;2023-02-23T12:21:36;8.57;;;4.43;;
50012;SDS011;35901;48.694;9.476;2023-02-23T12:24:19;5.37;;;3.67;;
50012;SDS011;35901;48.694;9.476;2023-02-23T12:29:58;5.93;;;3.97;;
50012;SDS011;35901;48.694;9.476;2023-02-23T12:32:38;5.97;;;4.03;;
50012;SDS011;35901;48.694;9.476;2023-02-23T12:37:44;28.80;;;13.23;;
50012;SDS011;35901;48.694;9.476;2023-02-23T12:45:38;8.13;;;5.43;;
50012;SDS011;35901;48.694;9.476;2023-02-23T12:48:13;5.90;;;4.30;;
50012;SDS011;35901;48.694;9.476;2023-02-23T12:51:00;10.27;;;6.40;;
50012;SDS011;35901;48.694;9.476;2023-02-23T12:53:38;7.83;;;4.47;;
50012;SDS011;35901;48.694;9.476;2023-02-23T12:58:58;7.37;;;3.67;;
50012;SDS011;35901;48.694;9.476;2023-02-23T13:02:00;6.07;;;3.57;;
50012;SDS011;35901;48.694;9.476;2023-02-23T13:21:49;6.70;;;3.70;;
50012;SDS011;35901;48.694;9.476;2023-02-23T13:24:23;5.13;;;3.30;;
50012;SDS011;35901;48.694;9.476;2023-02-23T13:32:31;4.37;;;3.30;;
50012;SDS011;35901;48.694;9.476;2023-02-23T13:34:59;6.63;;;3.70;;
50012;SDS011;35901;48.694;9.476;2023-02-23T13:45:56;6.33;;;3.40;;
50012;SDS011;35901;48.694;9.476;2023-02-23T13:48:58;4.73;;;3.17;;
50012;SDS011;35901;48.694;9.476;2023-02-23T13:51:38;4.87;;;3.10;;
50012;SDS011;35901;48.694;9.476;2023-02-23T13:56:41;5.17;;;3.30;;
50012;SDS011;35901;48.694;9.476;2023-02-23T13:59:21;5.90;;;3.57;;
50012;SDS011;35901;48.694;9.476;2023-02-23T14:01:50;7.57;;;3.00;;
50012;SDS011;35901;48.694;9.476;2023-02-23T14:04:21;4.00;;;3.20;;
50012;SDS011;35901;48.694;9.476;2023-02-23T14:06:50;4.90;;;3.20;;
50012;SDS011;35901;48.694;9.476;2023-02-23T14:09:45;5.00;;;3.27;;
50012;SDS011;35901;48.694;9.476;2023-02-23T14:18:03;3.73;;;3.03;;
50012;SDS011;35901;48.694;9.476;2023-02-23T14:20:53;4.43;;;3.30;;
50012;SDS011;35901;48.694;9.476;2023-02-23T14:25:50;3.33;;;2.97;;
50012;SDS011;35901;48.694;9.476;2023-02-23T14:28:38;6.50;;;2.87;;
50012;SDS011;35901;48.694;9.476;2023-02-23T14:39:04;4.53;;;2.40;;
50012;SDS011;35901;48.694;9.476;2023-02-23T14:41:42;5.23;;;2.30;;
50012;SDS011;35901;48.694;9.476;2023-02-23T14:44:20;4.60;;;2.20;;
50012;SDS011;35901;48.694;9.476;2023-02-23T14:46:53;3.67;;;2.20;;
50012;SDS011;35901;48.694;9.476;2023-02-23T14:49:20;4.03;;;2.27;;
50012;SDS011;35901;48.694;9.476;2023-02-23T14:57:03;4.27;;;2.43;;
50012;SDS011;35901;48.694;9.476;2023-02-23T14:59:42;4.67;;;2.50;;
50012;SDS011;35901;48.694;9.476;2023-02-23T15:02:09;3.73;;;2.10;;
50012;SDS011;35901;48.694;9.476;2023-02-23T15:04:43;5.10;;;2.40;;
50012;SDS011;35901;48.694;9.476;2023-02-23T15:09:55;2.73;;;2.47;;
50012;SDS011;35901;48.694;9.476;2023-02-23T15:12:23;4.57;;;2.23;;
50012;SDS011;35901;48.694;9.476;2023-02-23T15:14:55;3.70;;;2.27;;
50012;SDS011;35901;48.694;9.476;2023-02-23T15:17:27;3.93;;;2.70;;
50012;SDS011;35901;48.694;9.476;2023-02-23T15:20:00;5.77;;;2.63;;
50012;SDS011;35901;48.694;9.476;2023-02-23T15:22:35;3.60;;;2.53;;
50012;SDS011;35901;48.694;9.476;2023-02-23T15:25:22;5.87;;;2.90;;
50012;SDS011;35901;48.694;9.476;2023-02-23T15:27:50;5.80;;;2.70;;
50012;SDS011;35901;48.694;9.476;2023-02-23T15:32:43;5.73;;;3.00;;
50012;SDS011;35901;48.694;9.476;2023-02-23T15:35:10;5.73;;;2.80;;
50012;SDS011;35901;48.694;9.476;2023-02-23T15:37:38;3.77;;;2.70;;
50012;SDS011;35901;48.694;9.476;2023-02-23T15:40:16;8.97;;;3.67;;
50012;SDS011;35901;48.694;9.476;2023-02-23T15:42:46;4.77;;;3.00;;
50012;SDS011;35901;48.694;9.476;2023-02-23T15:47:53;5.60;;;3.50;;
50012;SDS011;35901;48.694;9.476;2023-02-23T15:50:22;5.87;;;3.80;;
50012;SDS011;35901;48.694;9.476;2023-02-23T15:52:59;4.57;;;3.20;;
50012;SDS011;35901;48.694;9.476;2023-02-23T15:55:29;4.77;;;3.83;;
50012;SDS011;35901;48.694;9.476;2023-02-23T15:58:01;4.90;;;3.37;;
50012;SDS011;35901;48.694;9.476;2023-02-23T16:00:45;10.77;;;3.67;;
50012;SDS011;35901;48.694;9.476;2023-02-23T16:03:53;7.97;;;3.70;;
50012;SDS011;35901;48.694;9.476;2023-02-23T16:06:22;6.90;;;3.37;;
50012;SDS011;35901;48.694;9.476;2023-02-23T16:11:52;5.33;;;3.20;;
50012;SDS011;35901;48.694;9.476;2023-02-23T16:14:21;7.80;;;3.37;;
50012;SDS011;35901;48.694;9.476;2023-02-23T16:16:48;7.00;;;3.20;;
50012;SDS011;35901;48.694;9.476;2023-02-23T16:19:18;5.80;;;3.43;;
50012;SDS011;35901;48.694;9.476;2023-02-23T16:21:52;4.53;;;3.30;;
50012;SDS011;35901;48.694;9.476;2023-02-23T16:24:23;6.23;;;3.30;;
50012;SDS011;35901;48.694;9.476;2023-02-23T16:26:52;8.07;;;3.47;;
50012;SDS011;35901;48.694;9.476;2023-02-23T16:29:25;5.80;;;2.97;;
50012;SDS011;35901;48.694;9.476;2023-02-23T16:31:57;5.07;;;3.10;;
50012;SDS011;35901;48.694;9.476;2023-02-23T16:34:30;7.80;;;3.37;;
50012;SDS011;35901;48.694;9.476;2023-02-23T16:37:23;5.10;;;3.33;;
50012;SDS011;35901;48.694;9.476;2023-02-23T16:39:51;5.50;;;3.50;;
50012;SDS011;35901;48.694;9.476;2023-02-23T16:42:25;7.00;;;3.60;;
50012;SDS011;35901;48.694;9.476;2023-02-23T16:44:54;6.10;;;4.17;;
50012;SDS011;35901;48.694;9.476;2023-02-23T16:49:46;5.17;;;3.67;;
50012;SDS011;35901;48.694;9.476;2023-02-23T16:52:15;5.87;;;3.57;;
50012;SDS011;35901;48.694;9.476;2023-02-23T16:54:50;7.10;;;3.60;;
50012;SDS011;35901;48.694;9.476;2023-02-23T16:57:20;4.73;;;3.57;;
50012;SDS011;35901;48.694;9.476;2023-02-23T16:59:49;7.23;;;3.53;;
50012;SDS011;35901;48.694;9.476;2023-02-23T17:02:17;6.97;;;3.60;;
50012;SDS011;35901;48.694;9.476;2023-02-23T17:04:44;5.20;;;3.60;;
50012;SDS011;35901;48.694;9.476;2023-02-23T17:07:13;8.63;;;4.53;;
50012;SDS011;35901;48.694;9.476;2023-02-23T17:09:40;5.43;;;3.60;;
50012;SDS011;35901;48.694;9.476;2023-02-23T17:12:08;5.83;;;3.90;;
50012;SDS011;35901;48.694;9.476;2023-02-23T17:14:35;7.77;;;4.00;;
50012;SDS011;35901;48.694;9.476;2023-02-23T17:17:01;5.83;;;4.17;;
50012;SDS011;35901;48.694;9.476;2023-02-23T17:19:27;5.83;;;3.70;;
50012;SDS011;35901;48.694;9.476;2023-02-23T17:21:52;7.90;;;4.07;;
50012;SDS011;35901;48.694;9.476;2023-02-23T17:24:18;7.53;;;4.00;;